Addy, Washington
Current Conditions -  °F | °C
As of 12:53 PM on Monday 22 Dec 2014 (Local Time) from KDEW Reporting Station
Clear Clear  
Wind Chill:   Ceiling: Unl
Heat Index:   Visibility: 10mi
Dew Point: -3°   Wind: 9mph
Humidity: 46%   Direction: 290°WNW
Pressure: 30.17"   Gusts: NA
Location:  48.36°N, 117.84°W
Report Text: KDEW 222053Z AUTO 29008KT 10SM CLR 08/M03 A3017 RMK AO2 SLP229 T00781033 51009
Loading
Personal Weather Stations






























Interactive Weather Map New forecast layout! Learn more

10-Day Weather Forecast

Advertisements
Track Severe Weather on mobile